Terminal Aerodrome Forecast
Issued by NWS Memphis, TN

Current Version | Previous Version | Text Only | Print | Product List | Glossary On
Versions: 1 2 3 4 5 6 7 8 9 10 11 12 13 14 15 16 17 18
000
FTUS44 KMEG 251134
TAFMKL
TAF
KMKL 251134Z 2512/2612 26005KT P6SM OVC025
     FM251300 23005KT P6SM SKC
     FM251700 20009KT P6SM SCT250
     FM260000 17004KT P6SM BKN250=

USA.gov is the U.S. government's official web portal to all federal, state and local government web resources and services.